Sandpiper — WDG2173 — position and weather

sailwx.info

Track history (hours):
 
Tides and Currents Weather Stations Pressure Air Temp Water Temp Dewpoint Dewpoint Depression Visibility Wind Speed Wind Dir Waves Ship Positions

Sandpiper

Owner: Higman Barge Lines, Inc., Orange, TX. More information available from US FCC via Universal Licensing System and Coast Guard Vessel Documentation Center.

Last reported at 2018-Jan-23 19:30 UTC. Time now 2018-Jan-23 19:36 UTC.
Position N 30°13' W 093°16'.

Length 26 m; draft 3 m.

Type: Towing. MMSI: 367512920.

Date/timePositionNaut miles runAvg speedWind from/ knotsBaromVisibWave heightAir tempDewpointWater temp
2018-Jan-23 19:30N 30°13' W 093°16'0 0.0
2018-Jan-23 19:00N 30°13' W 093°16'0 0.0
2018-Jan-23 18:30N 30°13' W 093°16'0 0.0
2018-Jan-23 17:58N 30°13' W 093°16'0 0.0
2018-Jan-23 17:30N 30°13' W 093°16'0 0.0
2018-Jan-23 17:00N 30°13' W 093°16'0 0.0
2018-Jan-23 16:30N 30°13' W 093°16'0 0.0
2018-Jan-23 15:45N 30°13' W 093°16'0 0.0
2018-Jan-23 15:19N 30°13' W 093°16'0 0.0
2018-Jan-23 14:59N 30°13' W 093°16'0 0.0
2018-Jan-23 14:30N 30°13' W 093°16'0 0.0
2018-Jan-23 14:00N 30°13' W 093°16'0 0.0
2018-Jan-23 13:30N 30°13' W 093°16'0 0.1
2018-Jan-23 13:00N 30°13' W 093°16'0 0.0
2018-Jan-23 12:30N 30°13' W 093°16'0 0.0
2018-Jan-23 12:00N 30°13' W 093°16'0 0.0
2018-Jan-23 11:30N 30°13' W 093°16'0 0.0
2018-Jan-23 11:00N 30°13' W 093°16'0 0.0
2018-Jan-23 10:30N 30°13' W 093°16'0 0.0
2018-Jan-23 10:00N 30°13' W 093°16'0 0.1
2018-Jan-23 09:30N 30°13' W 093°16'1 1.1
2018-Jan-23 09:00N 30°13' W 093°16'3 5.4
2018-Jan-23 08:30N 30°11' W 093°18'3 5.6
2018-Jan-23 08:00N 30°09' W 093°20'3 5.1
2018-Jan-23 07:30N 30°06' W 093°20'3 5.3
2018-Jan-23 07:00N 30°04' W 093°21'2 4.8
2018-Jan-23 06:30N 30°04' W 093°24'2 4.2
2018-Jan-23 06:00N 30°04' W 093°26'3 5.5
2018-Jan-23 05:30N 30°04' W 093°29'3 5.5
2018-Jan-23 05:00N 30°04' W 093°32'4 5.6
2018-Jan-23 04:21N 30°04' W 093°37'2 5.3
2018-Jan-23 03:59N 30°04' W 093°39'4 5.9
2018-Jan-23 03:21N 30°03' W 093°43'2 3.4
2018-Jan-23 02:53N 30°05' W 093°43'69 2.4
2018-Jan-21 22:01N 29°31' W 094°53'0 7.9
2018-Jan-21 21:59N 29°31' W 094°53'4 7.5
2018-Jan-21 21:30N 29°34' W 094°55'4 6.9
2018-Jan-21 20:57N 29°37' W 094°58'3 7.4
2018-Jan-21 20:30N 29°41' W 094°59'  
2018-Jan-18 21:21N 29°45' W 095°07'3 5.6
2018-Jan-18 20:54N 29°47' W 095°05'0 0.0
2018-Jan-18 20:23N 29°47' W 095°05'1 0.5
2018-Jan-18 18:48N 29°46' W 095°05'2 4.2
2018-Jan-18 18:22N 29°45' W 095°07'0 0.0
2018-Jan-18 14:50N 29°45' W 095°07'0 0.0
2018-Jan-18 14:28N 29°45' W 095°07'1 0.1
2018-Jan-18 02:05N 29°45' W 095°06'  
Track history (hours):
 
Tides and Currents Weather Stations Pressure Air Temp Water Temp Dewpoint Dewpoint Depression Visibility Wind Speed Wind Dir Waves Ship Positions

Sandpiper

Owner: Higman Barge Lines, Inc., Orange, TX. More information available from US FCC via Universal Licensing System and Coast Guard Vessel Documentation Center.

Last reported at 2018-Jan-23 19:30 UTC. Time now 2018-Jan-23 19:36 UTC.
Position N 30°13' W 093°16'.

Length 26 m; draft 3 m.

Type: Towing. MMSI: 367512920.

Date/timePositionNaut miles runAvg speedWind from/ knotsBaromVisibWave heightAir tempDewpointWater temp
2018-Jan-23 19:30N 30°13' W 093°16'0 0.0
2018-Jan-23 19:00N 30°13' W 093°16'0 0.0
2018-Jan-23 18:30N 30°13' W 093°16'0 0.0
2018-Jan-23 17:58N 30°13' W 093°16'0 0.0
2018-Jan-23 17:30N 30°13' W 093°16'0 0.0
2018-Jan-23 17:00N 30°13' W 093°16'0 0.0
2018-Jan-23 16:30N 30°13' W 093°16'0 0.0
2018-Jan-23 15:45N 30°13' W 093°16'0 0.0
2018-Jan-23 15:19N 30°13' W 093°16'0 0.0
2018-Jan-23 14:59N 30°13' W 093°16'0 0.0
2018-Jan-23 14:30N 30°13' W 093°16'0 0.0
2018-Jan-23 14:00N 30°13' W 093°16'0 0.0
2018-Jan-23 13:30N 30°13' W 093°16'0 0.1
2018-Jan-23 13:00N 30°13' W 093°16'0 0.0
2018-Jan-23 12:30N 30°13' W 093°16'0 0.0
2018-Jan-23 12:00N 30°13' W 093°16'0 0.0
2018-Jan-23 11:30N 30°13' W 093°16'0 0.0
2018-Jan-23 11:00N 30°13' W 093°16'0 0.0
2018-Jan-23 10:30N 30°13' W 093°16'0 0.0
2018-Jan-23 10:00N 30°13' W 093°16'0 0.1
2018-Jan-23 09:30N 30°13' W 093°16'1 1.1
2018-Jan-23 09:00N 30°13' W 093°16'3 5.4
2018-Jan-23 08:30N 30°11' W 093°18'3 5.6
2018-Jan-23 08:00N 30°09' W 093°20'3 5.1
2018-Jan-23 07:30N 30°06' W 093°20'3 5.3
2018-Jan-23 07:00N 30°04' W 093°21'2 4.8
2018-Jan-23 06:30N 30°04' W 093°24'2 4.2
2018-Jan-23 06:00N 30°04' W 093°26'3 5.5
2018-Jan-23 05:30N 30°04' W 093°29'3 5.5
2018-Jan-23 05:00N 30°04' W 093°32'4 5.6
2018-Jan-23 04:21N 30°04' W 093°37'2 5.3
2018-Jan-23 03:59N 30°04' W 093°39'4 5.9
2018-Jan-23 03:21N 30°03' W 093°43'2 3.4
2018-Jan-23 02:53N 30°05' W 093°43'69 2.4
2018-Jan-21 22:01N 29°31' W 094°53'0 7.9
2018-Jan-21 21:59N 29°31' W 094°53'4 7.5
2018-Jan-21 21:30N 29°34' W 094°55'4 6.9
2018-Jan-21 20:57N 29°37' W 094°58'3 7.4
2018-Jan-21 20:30N 29°41' W 094°59'  
2018-Jan-18 21:21N 29°45' W 095°07'3 5.6
2018-Jan-18 20:54N 29°47' W 095°05'0 0.0
2018-Jan-18 20:23N 29°47' W 095°05'1 0.5
2018-Jan-18 18:48N 29°46' W 095°05'2 4.2
2018-Jan-18 18:22N 29°45' W 095°07'0 0.0
2018-Jan-18 14:50N 29°45' W 095°07'0 0.0
2018-Jan-18 14:28N 29°45' W 095°07'1 0.1
2018-Jan-18 02:05N 29°45' W 095°06'  

Dump ship's entire track history